createdAt,value
2023-02-28T00:00:11.988Z,100970.88
2023-02-28T00:03:14.307Z,100974.34
2023-02-28T00:06:16.737Z,100979.56
2023-02-28T00:09:19.220Z,100985.59
2023-02-28T00:12:21.501Z,100988.22
2023-02-28T00:15:24.811Z,100995.12
2023-02-28T00:18:26.922Z,100996.00
2023-02-28T00:21:29.503Z,100998.63
2023-02-28T00:24:31.781Z,101002.06
2023-02-28T00:27:34.701Z,101001.22
2023-02-28T00:30:36.858Z,100997.75
2023-02-28T00:33:38.890Z,101003.84
2023-02-28T00:36:44.833Z,101009.03
2023-02-28T00:39:47.123Z,101008.16
2023-02-28T00:42:49.219Z,101006.44
2023-02-28T00:45:51.354Z,101001.22
2023-02-28T00:48:53.589Z,101002.13
2023-02-28T00:51:56.651Z,100994.31
2023-02-28T00:54:58.716Z,100989.97
2023-02-28T00:58:00.733Z,100989.97
2023-02-28T01:01:04.380Z,100990.81
2023-02-28T01:04:06.667Z,100992.56
2023-02-28T01:07:09.148Z,100989.09
2023-02-28T01:10:11.975Z,100989.94
2023-02-28T01:13:16.508Z,100990.81
2023-02-28T01:16:18.968Z,100988.22
2023-02-28T01:19:21.515Z,100996.00
2023-02-28T01:22:24.039Z,100999.47
2023-02-28T01:25:26.192Z,100996.00
2023-02-28T01:28:28.327Z,100996.00
2023-02-28T01:31:31.293Z,101002.03
2023-02-28T01:34:33.876Z,100995.16
2023-02-28T01:37:36.056Z,100992.53
2023-02-28T01:40:38.380Z,100992.50
2023-02-28T01:43:46.275Z,100989.03
2023-02-28T01:46:48.364Z,100995.97
2023-02-28T01:49:52.730Z,100995.09
2023-02-28T01:52:59.481Z,100995.12
2023-02-28T01:56:04.977Z,100993.34
2023-02-28T01:59:07.068Z,100992.50
2023-02-28T02:02:09.295Z,100995.94
2023-02-28T02:05:15.792Z,100992.50
2023-02-28T02:08:30.259Z,100989.91
2023-02-28T02:11:32.451Z,100977.81
2023-02-28T02:14:55.510Z,100978.63
2023-02-28T02:18:02.839Z,100981.22
2023-02-28T02:21:47.050Z,100982.94
2023-02-28T02:24:51.720Z,100988.16
2023-02-28T02:28:57.903Z,100985.53
2023-02-28T02:32:29.124Z,100984.69
2023-02-28T02:35:53.688Z,100980.41
2023-02-28T02:39:04.877Z,100977.78
2023-02-28T02:42:16.148Z,100979.53
2023-02-28T02:45:24.439Z,100976.91
2023-02-28T02:48:33.065Z,100968.28
2023-02-28T02:51:37.811Z,100973.44
2023-02-28T02:54:44.970Z,100970.03
2023-02-28T02:58:02.476Z,100976.06
2023-02-28T03:01:06.164Z,100972.63
2023-02-28T03:04:20.602Z,100979.53
2023-02-28T03:07:22.745Z,100976.06
2023-02-28T03:10:30.905Z,100969.13
2023-02-28T03:14:01.202Z,100981.22
2023-02-28T03:17:18.195Z,100983.81
2023-02-28T03:20:36.219Z,100990.75
2023-02-28T03:24:06.334Z,100992.50
2023-02-28T03:27:17.524Z,100995.97
2023-02-28T03:30:34.915Z,100996.84
2023-02-28T03:33:59.967Z,100993.34
2023-02-28T03:37:09.988Z,101004.62
2023-02-28T03:40:18.214Z,101008.97
2023-02-28T03:43:26.218Z,101000.31
2023-02-28T03:46:32.441Z,100998.59
2023-02-28T03:49:44.699Z,100999.44
2023-02-28T03:53:01.248Z,100989.06
2023-02-28T03:56:21.242Z,101003.75
2023-02-28T03:59:35.654Z,101012.41
2023-02-28T04:02:37.682Z,101018.50
2023-02-28T04:05:54.696Z,101012.44
2023-02-28T04:08:56.868Z,101015.00
2023-02-28T04:11:59.243Z,101016.72
2023-02-28T04:15:01.262Z,101015.00
2023-02-28T04:18:03.746Z,101012.41
2023-02-28T04:21:06.765Z,101015.88
2023-02-28T04:24:15.367Z,101010.69
2023-02-28T04:27:17.448Z,101011.56
2023-02-28T04:30:19.942Z,101015.03
2023-02-28T04:33:22.323Z,101015.84
2023-02-28T04:36:24.600Z,101003.72
2023-02-28T04:39:26.599Z,101012.41
2023-02-28T04:42:28.630Z,101017.59
2023-02-28T04:45:33.308Z,101013.25
2023-02-28T04:48:38.383Z,101015.84
2023-02-28T04:51:41.196Z,101015.88
2023-02-28T04:54:43.373Z,101015.88
2023-02-28T04:57:45.447Z,101013.25
2023-02-28T05:00:47.601Z,101016.72
2023-02-28T05:03:50.586Z,101009.78
2023-02-28T05:06:52.603Z,101017.59
2023-02-28T05:09:54.685Z,101020.25
2023-02-28T05:12:56.972Z,101025.44
2023-02-28T05:15:59.200Z,101023.69
2023-02-28T05:19:01.588Z,101036.69
2023-02-28T05:22:04.008Z,101028.91
2023-02-28T05:25:06.515Z,101035.88
2023-02-28T05:28:08.902Z,101031.56
2023-02-28T05:31:14.307Z,101043.69
2023-02-28T05:34:17.202Z,101041.97
2023-02-28T05:37:19.322Z,101048.00
2023-02-28T05:40:21.610Z,101057.53
2023-02-28T05:43:24.383Z,101058.41
2023-02-28T05:46:26.597Z,101050.63
2023-02-28T05:49:28.840Z,101060.13
2023-02-28T05:52:31.315Z,101067.94
2023-02-28T05:55:33.378Z,101069.69
2023-02-28T05:58:35.915Z,101069.69
2023-02-28T06:01:41.164Z,101071.37
2023-02-28T06:04:44.270Z,101074.00
2023-02-28T06:07:46.274Z,101069.66
2023-02-28T06:10:48.720Z,101085.25
2023-02-28T06:13:50.803Z,101071.34
2023-02-28T06:16:53.620Z,101079.16
2023-02-28T06:19:55.757Z,101078.28
2023-02-28T06:22:59.639Z,101085.19
2023-02-28T06:26:01.743Z,101089.53
2023-02-28T06:29:04.172Z,101097.31
2023-02-28T06:32:06.520Z,101086.00
2023-02-28T06:35:08.900Z,101098.09
2023-02-28T06:38:11.810Z,101102.41
2023-02-28T06:41:13.807Z,101098.91
2023-02-28T06:44:19.353Z,101104.16
2023-02-28T06:47:21.466Z,101102.38
2023-02-28T06:50:23.860Z,101110.22
2023-02-28T06:53:25.851Z,101108.50
2023-02-28T06:56:28.031Z,101116.22
2023-02-28T06:59:30.195Z,101118.78
2023-02-28T07:02:32.936Z,101115.34
2023-02-28T07:05:38.993Z,101116.16
2023-02-28T07:08:42.245Z,101124.84
2023-02-28T07:11:44.987Z,101117.91
2023-02-28T07:14:47.015Z,101124.81
2023-02-28T07:17:49.104Z,101117.78
2023-02-28T07:20:51.598Z,101117.84
2023-02-28T07:23:53.770Z,101117.81
2023-02-28T07:26:56.519Z,101123.03
2023-02-28T07:29:58.714Z,101112.47
2023-02-28T07:33:00.883Z,101117.66
2023-02-28T07:36:08.752Z,101122.84
2023-02-28T07:39:11.326Z,101124.50
2023-02-28T07:42:13.970Z,101121.84
2023-02-28T07:45:16.119Z,101122.69
2023-02-28T07:48:18.251Z,101126.13
2023-02-28T07:51:20.354Z,101128.72
2023-02-28T07:54:22.401Z,101122.47
2023-02-28T07:57:24.747Z,101123.06
2023-02-28T08:00:26.967Z,101129.06
2023-02-28T08:03:29.158Z,101129.75
2023-02-28T08:06:31.240Z,101126.09
2023-02-28T08:09:33.566Z,101128.31
2023-02-28T08:12:35.612Z,101131.97
2023-02-28T08:15:37.645Z,101132.50
2023-02-28T08:18:40.069Z,101124.69
2023-02-28T08:21:42.347Z,101126.03
2023-02-28T08:24:44.834Z,101125.94
2023-02-28T08:27:46.886Z,101129.91
2023-02-28T08:30:50.128Z,101127.81
2023-02-28T08:33:54.173Z,101129.81
2023-02-28T08:36:56.834Z,101132.34
2023-02-28T08:39:59.092Z,101127.72
2023-02-28T08:43:01.428Z,101129.94
2023-02-28T08:46:03.660Z,101127.44
2023-02-28T08:49:05.875Z,101137.63
2023-02-28T08:52:08.160Z,101131.22
2023-02-28T08:55:10.914Z,101129.03
2023-02-28T08:58:13.015Z,101132.94
2023-02-28T09:01:16.328Z,101124.28
2023-02-28T09:04:20.381Z,101128.16
2023-02-28T09:07:22.950Z,101130.78
2023-02-28T09:10:25.236Z,101124.56
2023-02-28T09:13:27.969Z,101121.81
2023-02-28T09:16:32.795Z,101129.06
2023-02-28T09:19:35.188Z,101126.59
2023-02-28T09:22:37.350Z,101122.66
2023-02-28T09:25:46.097Z,101123.62
2023-02-28T09:28:48.270Z,101121.37
2023-02-28T09:31:51.192Z,101115.41
2023-02-28T09:34:53.241Z,101120.84
2023-02-28T09:37:55.634Z,101122.25
2023-02-28T09:41:04.452Z,101115.66
2023-02-28T09:44:11.302Z,101107.28
2023-02-28T09:47:19.571Z,101114.66
2023-02-28T09:50:27.852Z,101113.50
2023-02-28T09:53:35.181Z,101108.59
2023-02-28T09:56:43.638Z,101107.25
2023-02-28T10:00:03.021Z,101106.50
2023-02-28T10:03:16.626Z,101108.88
2023-02-28T10:06:22.935Z,101100.56
2023-02-28T10:09:36.798Z,101103.88
2023-02-28T10:12:44.538Z,101111.66
2023-02-28T10:15:51.239Z,101115.28
2023-02-28T10:19:00.947Z,101110.00
2023-02-28T10:22:12.356Z,101112.63
2023-02-28T10:25:24.445Z,101116.22
2023-02-28T10:28:29.766Z,101117.16
2023-02-28T10:31:31.918Z,101116.09
2023-02-28T10:34:34.256Z,101110.94
2023-02-28T10:37:39.939Z,101105.94
2023-02-28T10:40:42.099Z,101101.03
2023-02-28T10:43:48.484Z,101092.84
2023-02-28T10:46:52.044Z,101100.38
2023-02-28T10:49:54.171Z,101077.69
2023-02-28T10:52:56.596Z,101073.63
2023-02-28T10:56:02.712Z,101071.72
2023-02-28T10:59:24.790Z,101077.72
2023-02-28T11:02:43.989Z,101069.28
2023-02-28T11:05:46.980Z,101057.03
2023-02-28T11:08:57.606Z,101059.69
2023-02-28T11:12:00.880Z,101058.03
2023-02-28T11:15:06.932Z,101056.19
2023-02-28T11:18:24.557Z,101044.66
2023-02-28T11:21:37.870Z,101049.78
2023-02-28T11:24:46.155Z,101043.59
2023-02-28T11:27:50.896Z,101038.09
2023-02-28T11:31:07.748Z,101031.59
2023-02-28T11:34:27.494Z,101020.88
2023-02-28T11:37:31.636Z,101028.56
2023-02-28T11:40:55.574Z,101017.59
2023-02-28T11:44:08.866Z,101015.91
2023-02-28T11:47:20.405Z,101021.75
2023-02-28T11:51:07.160Z,101018.72
2023-02-28T11:54:33.707Z,101008.12
2023-02-28T11:58:02.121Z,100996.69
2023-02-28T12:01:16.209Z,101006.94
2023-02-28T12:04:29.407Z,100995.78
2023-02-28T12:07:35.503Z,100998.12
2023-02-28T12:11:11.905Z,100999.47
2023-02-28T12:14:42.520Z,100987.22
2023-02-28T12:18:07.833Z,100984.19
2023-02-28T12:21:27.037Z,100977.34
2023-02-28T12:25:02.509Z,100976.16
2023-02-28T12:28:05.369Z,100988.69
2023-02-28T12:31:18.208Z,100987.28
2023-02-28T12:34:29.897Z,100980.69
2023-02-28T12:37:44.659Z,100984.00
2023-02-28T12:40:55.982Z,100986.75
2023-02-28T12:44:12.648Z,100976.75
2023-02-28T12:47:17.416Z,100971.00
2023-02-28T12:50:20.920Z,100979.53
2023-02-28T12:53:33.274Z,100978.78
2023-02-28T12:57:05.074Z,100979.22
2023-02-28T13:00:18.789Z,100979.37
2023-02-28T13:04:05.519Z,100971.12
2023-02-28T13:07:22.679Z,100965.16
2023-02-28T13:10:25.229Z,100958.97
2023-02-28T13:13:33.154Z,100966.91
2023-02-28T13:16:59.593Z,100970.41
2023-02-28T13:20:01.910Z,100969.31
2023-02-28T13:23:06.469Z,100964.81
2023-02-28T13:26:08.676Z,100956.19
2023-02-28T13:29:19.562Z,100953.94
2023-02-28T13:32:31.116Z,100971.00
2023-02-28T13:35:39.169Z,100963.88
2023-02-28T13:38:46.459Z,100960.78
2023-02-28T13:41:49.180Z,100958.28
2023-02-28T13:45:14.487Z,100959.34
2023-02-28T13:48:24.984Z,100958.59
2023-02-28T13:51:42.025Z,100959.91
2023-02-28T13:54:57.123Z,100955.50
2023-02-28T13:58:10.613Z,100953.09
2023-02-28T14:01:44.158Z,100953.72
2023-02-28T14:04:49.847Z,100953.81
2023-02-28T14:07:55.075Z,100953.34
2023-02-28T14:11:24.672Z,100948.03
2023-02-28T14:14:35.756Z,100949.37
2023-02-28T14:17:38.648Z,100950.78
2023-02-28T14:20:42.139Z,100947.22
2023-02-28T14:23:47.449Z,100944.22
2023-02-28T14:27:12.117Z,100941.06
2023-02-28T14:30:26.434Z,100939.31
2023-02-28T14:33:43.914Z,100927.38
2023-02-28T14:36:47.168Z,100932.75
2023-02-28T14:39:49.735Z,100931.31
2023-02-28T14:43:06.377Z,100933.56
2023-02-28T14:46:08.675Z,100932.00
2023-02-28T14:49:22.375Z,100934.78
2023-02-28T14:52:30.888Z,100930.06
2023-02-28T14:55:36.531Z,100925.31
2023-02-28T14:58:38.687Z,100923.97
2023-02-28T15:01:40.788Z,100921.50
2023-02-28T15:04:43.223Z,100915.75
2023-02-28T15:07:47.586Z,100925.34
2023-02-28T15:11:20.327Z,100884.87
2023-02-28T15:14:23.592Z,100920.94
2023-02-28T15:17:26.667Z,100923.25
2023-02-28T15:20:29.440Z,100925.16
2023-02-28T15:23:32.635Z,100920.31
2023-02-28T15:26:40.087Z,100921.69
2023-02-28T15:29:57.351Z,100919.13
2023-02-28T15:33:14.540Z,100918.78
2023-02-28T15:36:22.092Z,100919.66
2023-02-28T15:39:30.397Z,100933.50
2023-02-28T15:42:32.847Z,100927.06
2023-02-28T15:45:38.570Z,100926.81
2023-02-28T15:48:54.544Z,100933.03
2023-02-28T15:52:00.656Z,100928.69
2023-02-28T15:55:29.719Z,100919.31
2023-02-28T15:58:32.692Z,100920.88
2023-02-28T16:01:39.148Z,100914.16
2023-02-28T16:05:19.939Z,100925.44
2023-02-28T16:08:22.668Z,100918.63
2023-02-28T16:11:25.115Z,100915.09
2023-02-28T16:14:28.782Z,100914.09
2023-02-28T16:17:35.291Z,100919.88
2023-02-28T16:20:37.725Z,100917.19
2023-02-28T16:23:40.361Z,100925.03
2023-02-28T16:26:46.723Z,100919.97
2023-02-28T16:29:49.912Z,100934.75
2023-02-28T16:32:55.133Z,100938.37
2023-02-28T16:35:57.526Z,100934.91
2023-02-28T16:38:59.586Z,100939.28
2023-02-28T16:42:02.021Z,100940.44
2023-02-28T16:45:04.471Z,100936.13
2023-02-28T16:48:08.607Z,100936.78
2023-02-28T16:51:16.704Z,100938.00
2023-02-28T16:54:20.220Z,100935.37
2023-02-28T16:57:24.872Z,100944.06
2023-02-28T17:00:32.324Z,100942.16
2023-02-28T17:03:34.821Z,100956.19
2023-02-28T17:06:38.231Z,100970.09
2023-02-28T17:09:44.019Z,100969.25
2023-02-28T17:12:49.925Z,100967.69
2023-02-28T17:15:52.452Z,100960.03
2023-02-28T17:18:58.378Z,100958.59
2023-02-28T17:22:01.770Z,100970.28
2023-02-28T17:25:04.812Z,100964.06
2023-02-28T17:28:07.959Z,100978.12
2023-02-28T17:31:12.561Z,100949.78
2023-02-28T17:34:19.734Z,100973.91
2023-02-28T17:37:32.275Z,100983.53
2023-02-28T17:40:35.987Z,100985.31
2023-02-28T17:43:39.980Z,100989.72
2023-02-28T17:46:44.909Z,100990.53
2023-02-28T17:49:54.371Z,100986.91
2023-02-28T17:52:57.625Z,100979.03
2023-02-28T17:56:00.334Z,100989.53
2023-02-28T17:59:02.552Z,100996.84
2023-02-28T18:02:05.843Z,101000.28
2023-02-28T18:05:10.690Z,100994.19
2023-02-28T18:08:16.511Z,100992.53
2023-02-28T18:11:20.712Z,100995.25
2023-02-28T18:14:26.766Z,100997.03
2023-02-28T18:17:29.208Z,101001.53
2023-02-28T18:20:32.221Z,101001.47
2023-02-28T18:23:35.210Z,101002.25
2023-02-28T18:26:39.604Z,100998.78
2023-02-28T18:29:42.800Z,101001.50
2023-02-28T18:32:45.744Z,100998.91
2023-02-28T18:35:57.101Z,100994.47
2023-02-28T18:39:01.920Z,100997.16
2023-02-28T18:42:05.164Z,101001.50
2023-02-28T18:45:11.464Z,101002.53
2023-02-28T18:48:15.269Z,101005.22
2023-02-28T18:51:23.536Z,101011.28
2023-02-28T18:54:29.049Z,101006.84
2023-02-28T18:57:32.122Z,101008.62
2023-02-28T19:00:36.678Z,101013.16
2023-02-28T19:03:39.780Z,101015.88
2023-02-28T19:06:43.222Z,101016.78
2023-02-28T19:09:46.631Z,101020.28
2023-02-28T19:12:49.620Z,101026.44
2023-02-28T19:16:01.557Z,101021.09
2023-02-28T19:19:04.509Z,101022.81
2023-02-28T19:22:08.283Z,101021.06
2023-02-28T19:25:13.755Z,101032.28
2023-02-28T19:28:16.484Z,101023.59
2023-02-28T19:31:25.732Z,101029.47
2023-02-28T19:34:29.118Z,101038.16
2023-02-28T19:37:32.519Z,101037.28
2023-02-28T19:40:38.738Z,101039.81
2023-02-28T19:43:43.053Z,101027.63
2023-02-28T19:46:45.845Z,101031.13
2023-02-28T19:49:49.097Z,101027.66
2023-02-28T19:52:55.814Z,101029.44
2023-02-28T19:56:02.544Z,101031.19
2023-02-28T19:59:12.818Z,101032.00
2023-02-28T20:02:24.085Z,101031.97
2023-02-28T20:05:27.454Z,101020.84
2023-02-28T20:08:30.922Z,101017.31
2023-02-28T20:11:34.803Z,101011.19
2023-02-28T20:14:39.733Z,101010.34
2023-02-28T20:17:43.461Z,101003.37
2023-02-28T20:20:47.818Z,101002.59
2023-02-28T20:23:51.147Z,101006.13
2023-02-28T20:26:56.124Z,100999.97
2023-02-28T20:29:59.554Z,100999.06
2023-02-28T20:33:02.332Z,100995.59
2023-02-28T20:36:06.539Z,100999.06
2023-02-28T20:39:09.714Z,101004.34
2023-02-28T20:42:12.705Z,100999.00
2023-02-28T20:45:15.509Z,100997.38
2023-02-28T20:48:18.025Z,100997.38
2023-02-28T20:51:22.978Z,100981.78
2023-02-28T20:54:25.974Z,100971.34
2023-02-28T20:57:31.326Z,100970.53
2023-02-28T21:00:34.156Z,100967.06
2023-02-28T21:03:36.899Z,100970.59
2023-02-28T21:06:43.562Z,100973.34
2023-02-28T21:09:46.223Z,100969.09
2023-02-28T21:12:50.717Z,100969.03
2023-02-28T21:15:55.346Z,100973.44
2023-02-28T21:19:04.563Z,100969.88
2023-02-28T21:22:07.221Z,100968.19
2023-02-28T21:25:09.414Z,100969.09
2023-02-28T21:28:11.525Z,100970.78
2023-02-28T21:31:17.069Z,100975.97
2023-02-28T21:34:20.143Z,100974.25
2023-02-28T21:37:22.288Z,100976.03
2023-02-28T21:40:24.684Z,100980.28
2023-02-28T21:43:26.900Z,100975.94
2023-02-28T21:46:30.310Z,100974.31
2023-02-28T21:49:32.671Z,100973.41
2023-02-28T21:52:34.710Z,100980.50
2023-02-28T21:55:36.731Z,100979.66
2023-02-28T21:58:39.072Z,100984.78
2023-02-28T22:01:45.858Z,100981.25
2023-02-28T22:04:47.991Z,100978.69
2023-02-28T22:07:50.069Z,100971.66
2023-02-28T22:10:52.391Z,100972.47
2023-02-28T22:13:56.296Z,100969.09
2023-02-28T22:16:58.711Z,100966.63
2023-02-28T22:20:01.353Z,100964.00
2023-02-28T22:23:03.531Z,100970.94
2023-02-28T22:26:08.148Z,100973.50
2023-02-28T22:29:10.701Z,100984.81
2023-02-28T22:32:14.034Z,100977.03
2023-02-28T22:35:16.420Z,100976.13
2023-02-28T22:38:19.537Z,100974.44
2023-02-28T22:41:23.479Z,100983.22
2023-02-28T22:44:25.828Z,100974.47
2023-02-28T22:47:27.972Z,100962.25
2023-02-28T22:50:30.080Z,100969.25
2023-02-28T22:53:34.430Z,100973.66
2023-02-28T22:56:36.715Z,100971.06
2023-02-28T22:59:38.829Z,100967.59
2023-02-28T23:02:41.952Z,100975.47
2023-02-28T23:05:44.261Z,100973.72
2023-02-28T23:08:47.413Z,100984.16
2023-02-28T23:11:51.154Z,100980.66
2023-02-28T23:14:53.591Z,100974.53
2023-02-28T23:17:55.818Z,100974.53
2023-02-28T23:20:58.613Z,100966.78
2023-02-28T23:24:05.467Z,100962.53
2023-02-28T23:27:07.571Z,100970.50
2023-02-28T23:30:11.158Z,100966.13
2023-02-28T23:33:17.106Z,100957.53
2023-02-28T23:36:19.330Z,100954.88
2023-02-28T23:39:22.372Z,100953.97
2023-02-28T23:42:24.371Z,100945.31
2023-02-28T23:45:27.801Z,100959.19
2023-02-28T23:48:29.922Z,100961.88
2023-02-28T23:51:32.056Z,100969.59
2023-02-28T23:54:34.837Z,100968.69
2023-02-28T23:57:36.879Z,100967.78
